Lindale, Georgia
Current Conditions -  °F | °C
As of 10:53 PM on Monday 22 Dec 2014 (Local Time) from KRMG Reporting Station
Moderate Rain Moderate Rain  
Wind Chill: 41°   Ceiling: 900
Heat Index: 45°   Visibility: 5mi
Dew Point: 43°   Wind: 8mph
Humidity: 93%   Direction: 190°S
Pressure: 29.9"   Gusts: NA
Location:  34.19°N, 85.17°W
Report Text: KRMG 230353Z AUTO 19007KT 160V220 5SM RA BR OVC009 07/06 A2990 RMK AO2 RAE09B39 SLP122 P0003 T00720061
Loading
Personal Weather Stations






























Interactive Weather Map New forecast layout! Learn more

10-Day Weather Forecast

Advertisements
Track Severe Weather on mobile